sensor_id;sensor_type;location;lat;lon;timestamp;P1;durP1;ratioP1;P2;durP2;ratioP2
37609;SDS011;23457;51.966;8.230;2023-12-14T00:02:19;27.65;;;13.80;;
37609;SDS011;23457;51.966;8.230;2023-12-14T00:04:45;26.20;;;13.35;;
37609;SDS011;23457;51.966;8.230;2023-12-14T00:07:12;30.52;;;14.52;;
37609;SDS011;23457;51.966;8.230;2023-12-14T00:09:41;24.95;;;12.68;;
37609;SDS011;23457;51.966;8.230;2023-12-14T00:12:08;25.25;;;13.43;;
37609;SDS011;23457;51.966;8.230;2023-12-14T00:14:34;22.42;;;11.52;;
37609;SDS011;23457;51.966;8.230;2023-12-14T00:17:01;23.35;;;12.95;;
37609;SDS011;23457;51.966;8.230;2023-12-14T00:19:28;20.50;;;11.73;;
37609;SDS011;23457;51.966;8.230;2023-12-14T00:21:55;23.50;;;12.57;;
37609;SDS011;23457;51.966;8.230;2023-12-14T00:24:21;20.98;;;12.23;;
37609;SDS011;23457;51.966;8.230;2023-12-14T00:26:48;22.42;;;13.70;;
37609;SDS011;23457;51.966;8.230;2023-12-14T00:29:15;23.23;;;13.60;;
37609;SDS011;23457;51.966;8.230;2023-12-14T00:31:42;22.42;;;12.43;;
37609;SDS011;23457;51.966;8.230;2023-12-14T00:34:08;24.23;;;13.05;;
37609;SDS011;23457;51.966;8.230;2023-12-14T00:36:35;22.75;;;12.63;;
37609;SDS011;23457;51.966;8.230;2023-12-14T00:39:02;19.48;;;11.95;;
37609;SDS011;23457;51.966;8.230;2023-12-14T00:41:29;20.67;;;11.80;;
37609;SDS011;23457;51.966;8.230;2023-12-14T00:43:55;17.85;;;11.15;;
37609;SDS011;23457;51.966;8.230;2023-12-14T00:46:22;19.05;;;11.05;;
37609;SDS011;23457;51.966;8.230;2023-12-14T00:48:49;17.15;;;9.88;;
37609;SDS011;23457;51.966;8.230;2023-12-14T00:51:15;19.08;;;10.48;;
37609;SDS011;23457;51.966;8.230;2023-12-14T00:53:42;19.48;;;10.57;;
37609;SDS011;23457;51.966;8.230;2023-12-14T00:56:09;15.68;;;9.98;;
37609;SDS011;23457;51.966;8.230;2023-12-14T00:58:36;15.40;;;9.50;;
37609;SDS011;23457;51.966;8.230;2023-12-14T01:01:03;18.55;;;10.20;;
37609;SDS011;23457;51.966;8.230;2023-12-14T01:03:29;17.30;;;10.50;;
37609;SDS011;23457;51.966;8.230;2023-12-14T01:05:56;20.77;;;11.45;;
37609;SDS011;23457;51.966;8.230;2023-12-14T01:08:23;19.15;;;11.20;;
37609;SDS011;23457;51.966;8.230;2023-12-14T01:10:50;19.10;;;11.77;;
37609;SDS011;23457;51.966;8.230;2023-12-14T01:13:20;17.88;;;11.07;;
37609;SDS011;23457;51.966;8.230;2023-12-14T01:15:46;16.40;;;10.27;;
37609;SDS011;23457;51.966;8.230;2023-12-14T01:18:13;18.13;;;10.60;;
37609;SDS011;23457;51.966;8.230;2023-12-14T01:20:40;16.50;;;11.05;;
37609;SDS011;23457;51.966;8.230;2023-12-14T01:23:06;17.45;;;11.35;;
37609;SDS011;23457;51.966;8.230;2023-12-14T01:25:35;19.10;;;11.73;;
37609;SDS011;23457;51.966;8.230;2023-12-14T01:28:02;20.20;;;11.60;;
37609;SDS011;23457;51.966;8.230;2023-12-14T01:30:29;17.38;;;11.88;;
37609;SDS011;23457;51.966;8.230;2023-12-14T01:32:56;19.90;;;12.52;;
37609;SDS011;23457;51.966;8.230;2023-12-14T01:35:23;17.55;;;11.23;;
37609;SDS011;23457;51.966;8.230;2023-12-14T01:37:49;18.73;;;11.68;;
37609;SDS011;23457;51.966;8.230;2023-12-14T01:40:18;19.63;;;11.75;;
37609;SDS011;23457;51.966;8.230;2023-12-14T01:42:46;17.95;;;12.48;;
37609;SDS011;23457;51.966;8.230;2023-12-14T01:45:13;22.75;;;13.80;;
37609;SDS011;23457;51.966;8.230;2023-12-14T01:47:43;25.17;;;14.95;;
37609;SDS011;23457;51.966;8.230;2023-12-14T01:50:13;25.90;;;15.45;;
37609;SDS011;23457;51.966;8.230;2023-12-14T01:52:40;29.42;;;16.73;;
37609;SDS011;23457;51.966;8.230;2023-12-14T01:55:06;26.30;;;15.10;;
37609;SDS011;23457;51.966;8.230;2023-12-14T01:57:36;28.08;;;16.85;;
37609;SDS011;23457;51.966;8.230;2023-12-14T02:00:03;30.05;;;17.83;;
37609;SDS011;23457;51.966;8.230;2023-12-14T02:02:31;28.65;;;16.42;;
37609;SDS011;23457;51.966;8.230;2023-12-14T02:04:58;28.05;;;16.67;;
37609;SDS011;23457;51.966;8.230;2023-12-14T02:07:24;29.92;;;17.48;;
37609;SDS011;23457;51.966;8.230;2023-12-14T02:09:51;31.63;;;16.75;;
37609;SDS011;23457;51.966;8.230;2023-12-14T02:12:18;31.65;;;16.40;;
37609;SDS011;23457;51.966;8.230;2023-12-14T02:14:44;29.33;;;15.95;;
37609;SDS011;23457;51.966;8.230;2023-12-14T02:17:11;29.23;;;16.27;;
37609;SDS011;23457;51.966;8.230;2023-12-14T02:19:38;28.65;;;15.73;;
37609;SDS011;23457;51.966;8.230;2023-12-14T02:22:05;28.35;;;15.23;;
37609;SDS011;23457;51.966;8.230;2023-12-14T02:24:32;26.90;;;14.35;;
37609;SDS011;23457;51.966;8.230;2023-12-14T02:26:58;25.90;;;13.75;;
37609;SDS011;23457;51.966;8.230;2023-12-14T02:29:29;19.15;;;12.45;;
37609;SDS011;23457;51.966;8.230;2023-12-14T02:31:56;19.85;;;11.90;;
37609;SDS011;23457;51.966;8.230;2023-12-14T02:34:23;18.17;;;11.52;;
37609;SDS011;23457;51.966;8.230;2023-12-14T02:36:51;17.23;;;10.68;;
37609;SDS011;23457;51.966;8.230;2023-12-14T02:39:18;17.67;;;10.57;;
37609;SDS011;23457;51.966;8.230;2023-12-14T02:41:45;16.10;;;10.00;;
37609;SDS011;23457;51.966;8.230;2023-12-14T02:44:11;17.15;;;9.55;;
37609;SDS011;23457;51.966;8.230;2023-12-14T02:46:38;15.48;;;9.15;;
37609;SDS011;23457;51.966;8.230;2023-12-14T02:49:05;14.45;;;9.88;;
37609;SDS011;23457;51.966;8.230;2023-12-14T02:51:31;14.15;;;9.02;;
37609;SDS011;23457;51.966;8.230;2023-12-14T02:53:58;13.90;;;8.75;;
37609;SDS011;23457;51.966;8.230;2023-12-14T02:56:25;14.85;;;8.88;;
37609;SDS011;23457;51.966;8.230;2023-12-14T02:58:51;15.00;;;8.75;;
37609;SDS011;23457;51.966;8.230;2023-12-14T03:01:20;12.93;;;9.10;;
37609;SDS011;23457;51.966;8.230;2023-12-14T03:03:50;14.73;;;9.23;;
37609;SDS011;23457;51.966;8.230;2023-12-14T03:06:17;13.00;;;9.05;;
37609;SDS011;23457;51.966;8.230;2023-12-14T03:08:44;12.30;;;9.15;;
37609;SDS011;23457;51.966;8.230;2023-12-14T03:11:10;15.00;;;10.32;;
37609;SDS011;23457;51.966;8.230;2023-12-14T03:13:47;13.70;;;9.63;;
37609;SDS011;23457;51.966;8.230;2023-12-14T03:16:14;15.07;;;10.48;;
37609;SDS011;23457;51.966;8.230;2023-12-14T03:18:43;18.00;;;11.88;;
37609;SDS011;23457;51.966;8.230;2023-12-14T03:21:09;16.92;;;11.38;;
37609;SDS011;23457;51.966;8.230;2023-12-14T03:23:36;20.52;;;11.50;;
37609;SDS011;23457;51.966;8.230;2023-12-14T03:26:03;17.85;;;12.35;;
37609;SDS011;23457;51.966;8.230;2023-12-14T03:28:30;19.25;;;12.25;;
37609;SDS011;23457;51.966;8.230;2023-12-14T03:30:57;22.08;;;13.48;;
37609;SDS011;23457;51.966;8.230;2023-12-14T03:33:23;16.75;;;11.82;;
37609;SDS011;23457;51.966;8.230;2023-12-14T03:35:50;20.13;;;12.60;;
37609;SDS011;23457;51.966;8.230;2023-12-14T03:38:17;19.98;;;12.57;;
37609;SDS011;23457;51.966;8.230;2023-12-14T03:40:43;17.27;;;11.05;;
37609;SDS011;23457;51.966;8.230;2023-12-14T03:43:10;16.95;;;11.43;;
37609;SDS011;23457;51.966;8.230;2023-12-14T03:45:37;17.67;;;11.63;;
37609;SDS011;23457;51.966;8.230;2023-12-14T03:48:03;19.90;;;12.50;;
37609;SDS011;23457;51.966;8.230;2023-12-14T03:50:31;17.73;;;11.35;;
37609;SDS011;23457;51.966;8.230;2023-12-14T03:52:59;14.98;;;10.48;;
37609;SDS011;23457;51.966;8.230;2023-12-14T03:55:25;19.00;;;11.82;;
37609;SDS011;23457;51.966;8.230;2023-12-14T03:57:52;15.25;;;9.35;;
37609;SDS011;23457;51.966;8.230;2023-12-14T04:00:19;15.55;;;10.40;;
37609;SDS011;23457;51.966;8.230;2023-12-14T04:02:46;17.35;;;10.98;;
37609;SDS011;23457;51.966;8.230;2023-12-14T04:05:13;14.07;;;8.98;;
37609;SDS011;23457;51.966;8.230;2023-12-14T04:07:40;14.75;;;9.32;;
37609;SDS011;23457;51.966;8.230;2023-12-14T04:10:08;13.63;;;8.95;;
37609;SDS011;23457;51.966;8.230;2023-12-14T04:12:38;13.13;;;9.32;;
37609;SDS011;23457;51.966;8.230;2023-12-14T04:15:06;11.35;;;8.35;;
37609;SDS011;23457;51.966;8.230;2023-12-14T04:17:35;11.73;;;8.98;;
37609;SDS011;23457;51.966;8.230;2023-12-14T04:20:02;12.95;;;9.52;;
37609;SDS011;23457;51.966;8.230;2023-12-14T04:22:29;12.73;;;9.43;;
37609;SDS011;23457;51.966;8.230;2023-12-14T04:24:56;15.05;;;9.65;;
37609;SDS011;23457;51.966;8.230;2023-12-14T04:27:22;13.93;;;10.07;;
37609;SDS011;23457;51.966;8.230;2023-12-14T04:29:53;13.80;;;10.63;;
37609;SDS011;23457;51.966;8.230;2023-12-14T04:32:20;15.75;;;10.32;;
37609;SDS011;23457;51.966;8.230;2023-12-14T04:34:46;14.85;;;10.68;;
37609;SDS011;23457;51.966;8.230;2023-12-14T04:37:13;13.55;;;10.15;;
37609;SDS011;23457;51.966;8.230;2023-12-14T04:39:40;14.02;;;10.27;;
37609;SDS011;23457;51.966;8.230;2023-12-14T04:42:06;14.68;;;11.38;;
37609;SDS011;23457;51.966;8.230;2023-12-14T04:44:33;16.98;;;12.32;;
37609;SDS011;23457;51.966;8.230;2023-12-14T04:47:01;17.15;;;11.52;;
37609;SDS011;23457;51.966;8.230;2023-12-14T04:49:28;16.40;;;11.60;;
37609;SDS011;23457;51.966;8.230;2023-12-14T04:51:54;15.93;;;11.80;;
37609;SDS011;23457;51.966;8.230;2023-12-14T04:54:21;18.27;;;12.90;;
37609;SDS011;23457;51.966;8.230;2023-12-14T04:56:47;17.35;;;11.77;;
37609;SDS011;23457;51.966;8.230;2023-12-14T04:59:14;18.95;;;12.50;;
37609;SDS011;23457;51.966;8.230;2023-12-14T05:01:41;19.15;;;12.90;;
37609;SDS011;23457;51.966;8.230;2023-12-14T05:04:07;18.70;;;12.35;;
37609;SDS011;23457;51.966;8.230;2023-12-14T05:06:34;19.00;;;13.15;;
37609;SDS011;23457;51.966;8.230;2023-12-14T05:09:01;18.95;;;13.85;;
37609;SDS011;23457;51.966;8.230;2023-12-14T05:11:31;22.02;;;14.93;;
37609;SDS011;23457;51.966;8.230;2023-12-14T05:13:58;23.00;;;15.23;;
37609;SDS011;23457;51.966;8.230;2023-12-14T05:16:25;23.88;;;16.67;;
37609;SDS011;23457;51.966;8.230;2023-12-14T05:21:21;25.33;;;16.98;;
37609;SDS011;23457;51.966;8.230;2023-12-14T05:23:48;24.83;;;17.38;;
37609;SDS011;23457;51.966;8.230;2023-12-14T05:26:15;25.92;;;17.38;;
37609;SDS011;23457;51.966;8.230;2023-12-14T05:28:41;27.52;;;16.70;;
37609;SDS011;23457;51.966;8.230;2023-12-14T05:31:08;23.90;;;16.15;;
37609;SDS011;23457;51.966;8.230;2023-12-14T05:33:38;23.27;;;15.57;;
37609;SDS011;23457;51.966;8.230;2023-12-14T05:36:06;25.50;;;15.88;;
37609;SDS011;23457;51.966;8.230;2023-12-14T05:38:40;25.73;;;15.98;;
37609;SDS011;23457;51.966;8.230;2023-12-14T05:41:08;25.25;;;16.83;;
37609;SDS011;23457;51.966;8.230;2023-12-14T05:43:35;27.30;;;16.73;;
37609;SDS011;23457;51.966;8.230;2023-12-14T05:46:02;24.17;;;17.10;;
37609;SDS011;23457;51.966;8.230;2023-12-14T05:48:30;25.92;;;16.88;;
37609;SDS011;23457;51.966;8.230;2023-12-14T05:50:57;26.10;;;16.38;;
37609;SDS011;23457;51.966;8.230;2023-12-14T05:53:24;24.45;;;16.17;;
37609;SDS011;23457;51.966;8.230;2023-12-14T05:55:50;22.55;;;15.48;;
37609;SDS011;23457;51.966;8.230;2023-12-14T05:58:17;23.52;;;15.10;;
37609;SDS011;23457;51.966;8.230;2023-12-14T06:00:45;22.08;;;14.90;;
37609;SDS011;23457;51.966;8.230;2023-12-14T06:03:11;23.10;;;15.20;;
37609;SDS011;23457;51.966;8.230;2023-12-14T06:05:38;23.25;;;14.57;;
37609;SDS011;23457;51.966;8.230;2023-12-14T06:08:05;21.63;;;14.32;;
37609;SDS011;23457;51.966;8.230;2023-12-14T06:10:32;19.90;;;13.60;;
37609;SDS011;23457;51.966;8.230;2023-12-14T06:12:58;20.83;;;14.32;;
37609;SDS011;23457;51.966;8.230;2023-12-14T06:15:25;19.63;;;13.70;;
37609;SDS011;23457;51.966;8.230;2023-12-14T06:17:52;25.77;;;13.60;;
37609;SDS011;23457;51.966;8.230;2023-12-14T06:20:19;19.38;;;12.55;;
37609;SDS011;23457;51.966;8.230;2023-12-14T06:22:45;17.63;;;12.05;;
37609;SDS011;23457;51.966;8.230;2023-12-14T06:25:12;18.45;;;12.32;;
37609;SDS011;23457;51.966;8.230;2023-12-14T06:27:39;18.23;;;12.05;;
37609;SDS011;23457;51.966;8.230;2023-12-14T06:30:07;17.70;;;12.07;;
37609;SDS011;23457;51.966;8.230;2023-12-14T06:32:36;17.13;;;11.98;;
37609;SDS011;23457;51.966;8.230;2023-12-14T06:35:03;19.65;;;12.23;;
37609;SDS011;23457;51.966;8.230;2023-12-14T06:37:30;19.52;;;12.43;;
37609;SDS011;23457;51.966;8.230;2023-12-14T06:39:57;19.30;;;12.38;;
37609;SDS011;23457;51.966;8.230;2023-12-14T06:42:24;18.13;;;12.40;;
37609;SDS011;23457;51.966;8.230;2023-12-14T06:44:54;18.13;;;12.88;;
37609;SDS011;23457;51.966;8.230;2023-12-14T06:47:20;16.73;;;11.65;;
37609;SDS011;23457;51.966;8.230;2023-12-14T06:49:47;16.85;;;12.13;;
37609;SDS011;23457;51.966;8.230;2023-12-14T06:52:14;20.15;;;12.52;;
37609;SDS011;23457;51.966;8.230;2023-12-14T06:54:41;16.23;;;11.63;;
37609;SDS011;23457;51.966;8.230;2023-12-14T06:57:07;16.85;;;11.55;;
37609;SDS011;23457;51.966;8.230;2023-12-14T06:59:34;15.18;;;11.07;;
37609;SDS011;23457;51.966;8.230;2023-12-14T07:02:01;13.90;;;10.25;;
37609;SDS011;23457;51.966;8.230;2023-12-14T07:04:27;18.15;;;11.60;;
37609;SDS011;23457;51.966;8.230;2023-12-14T07:06:54;13.77;;;10.80;;
37609;SDS011;23457;51.966;8.230;2023-12-14T07:09:21;14.57;;;10.82;;
37609;SDS011;23457;51.966;8.230;2023-12-14T07:11:47;15.43;;;10.60;;
37609;SDS011;23457;51.966;8.230;2023-12-14T07:14:14;13.45;;;9.95;;
37609;SDS011;23457;51.966;8.230;2023-12-14T07:16:41;14.98;;;10.93;;
37609;SDS011;23457;51.966;8.230;2023-12-14T07:19:08;14.32;;;10.85;;
37609;SDS011;23457;51.966;8.230;2023-12-14T07:21:37;13.48;;;10.32;;
37609;SDS011;23457;51.966;8.230;2023-12-14T07:24:04;16.55;;;10.65;;
37609;SDS011;23457;51.966;8.230;2023-12-14T07:26:31;15.00;;;10.52;;
37609;SDS011;23457;51.966;8.230;2023-12-14T07:28:57;13.38;;;10.27;;
37609;SDS011;23457;51.966;8.230;2023-12-14T07:31:24;14.23;;;10.68;;
37609;SDS011;23457;51.966;8.230;2023-12-14T07:33:51;13.57;;;10.32;;
37609;SDS011;23457;51.966;8.230;2023-12-14T07:36:18;15.57;;;11.40;;
37609;SDS011;23457;51.966;8.230;2023-12-14T07:38:44;14.77;;;10.88;;
37609;SDS011;23457;51.966;8.230;2023-12-14T07:41:11;13.68;;;10.10;;
37609;SDS011;23457;51.966;8.230;2023-12-14T07:43:37;14.70;;;11.07;;
37609;SDS011;23457;51.966;8.230;2023-12-14T07:46:04;15.55;;;11.00;;
37609;SDS011;23457;51.966;8.230;2023-12-14T07:48:31;17.40;;;11.52;;
37609;SDS011;23457;51.966;8.230;2023-12-14T07:50:58;17.65;;;11.98;;
37609;SDS011;23457;51.966;8.230;2023-12-14T07:53:24;17.60;;;10.95;;
37609;SDS011;23457;51.966;8.230;2023-12-14T07:55:51;19.00;;;12.98;;
37609;SDS011;23457;51.966;8.230;2023-12-14T07:58:18;16.88;;;12.15;;
37609;SDS011;23457;51.966;8.230;2023-12-14T08:00:45;15.90;;;11.75;;
37609;SDS011;23457;51.966;8.230;2023-12-14T08:03:11;14.32;;;10.85;;
37609;SDS011;23457;51.966;8.230;2023-12-14T08:05:38;16.92;;;11.10;;
37609;SDS011;23457;51.966;8.230;2023-12-14T08:08:05;16.77;;;11.82;;
37609;SDS011;23457;51.966;8.230;2023-12-14T08:10:32;19.10;;;11.38;;
37609;SDS011;23457;51.966;8.230;2023-12-14T08:12:58;14.07;;;10.90;;
37609;SDS011;23457;51.966;8.230;2023-12-14T08:15:25;15.85;;;11.07;;
37609;SDS011;23457;51.966;8.230;2023-12-14T08:17:52;16.63;;;12.07;;
37609;SDS011;23457;51.966;8.230;2023-12-14T08:20:19;16.02;;;11.48;;
37609;SDS011;23457;51.966;8.230;2023-12-14T08:22:45;16.35;;;12.05;;
37609;SDS011;23457;51.966;8.230;2023-12-14T08:25:12;17.15;;;11.85;;
37609;SDS011;23457;51.966;8.230;2023-12-14T08:27:43;16.75;;;11.68;;
37609;SDS011;23457;51.966;8.230;2023-12-14T08:30:13;19.40;;;12.15;;
37609;SDS011;23457;51.966;8.230;2023-12-14T08:32:41;18.03;;;12.80;;
37609;SDS011;23457;51.966;8.230;2023-12-14T08:35:08;16.92;;;12.15;;
37609;SDS011;23457;51.966;8.230;2023-12-14T08:37:38;17.02;;;11.82;;
37609;SDS011;23457;51.966;8.230;2023-12-14T08:40:05;15.68;;;11.88;;
37609;SDS011;23457;51.966;8.230;2023-12-14T08:42:32;17.90;;;12.73;;
37609;SDS011;23457;51.966;8.230;2023-12-14T08:45:00;15.32;;;11.68;;
37609;SDS011;23457;51.966;8.230;2023-12-14T08:47:26;17.92;;;11.52;;
37609;SDS011;23457;51.966;8.230;2023-12-14T08:49:53;16.00;;;11.95;;
37609;SDS011;23457;51.966;8.230;2023-12-14T08:52:20;15.48;;;11.10;;
37609;SDS011;23457;51.966;8.230;2023-12-14T08:54:46;15.82;;;11.57;;
37609;SDS011;23457;51.966;8.230;2023-12-14T08:57:13;17.23;;;11.98;;
37609;SDS011;23457;51.966;8.230;2023-12-14T08:59:40;18.00;;;11.77;;
37609;SDS011;23457;51.966;8.230;2023-12-14T09:02:10;17.90;;;11.95;;
37609;SDS011;23457;51.966;8.230;2023-12-14T09:04:37;14.90;;;11.80;;
37609;SDS011;23457;51.966;8.230;2023-12-14T09:07:03;18.85;;;11.65;;
37609;SDS011;23457;51.966;8.230;2023-12-14T09:09:30;18.80;;;11.15;;
37609;SDS011;23457;51.966;8.230;2023-12-14T09:11:58;14.18;;;10.60;;
37609;SDS011;23457;51.966;8.230;2023-12-14T09:14:25;16.40;;;11.23;;
37609;SDS011;23457;51.966;8.230;2023-12-14T09:16:52;17.27;;;11.35;;
37609;SDS011;23457;51.966;8.230;2023-12-14T09:19:19;18.42;;;11.75;;
37609;SDS011;23457;51.966;8.230;2023-12-14T09:21:46;17.33;;;11.55;;
37609;SDS011;23457;51.966;8.230;2023-12-14T09:24:12;14.38;;;10.05;;
37609;SDS011;23457;51.966;8.230;2023-12-14T09:26:40;16.00;;;11.48;;
37609;SDS011;23457;51.966;8.230;2023-12-14T09:29:06;19.27;;;12.40;;
37609;SDS011;23457;51.966;8.230;2023-12-14T09:31:34;13.95;;;10.45;;
37609;SDS011;23457;51.966;8.230;2023-12-14T09:34:01;16.63;;;10.63;;
37609;SDS011;23457;51.966;8.230;2023-12-14T09:36:28;16.77;;;11.70;;
37609;SDS011;23457;51.966;8.230;2023-12-14T09:38:55;14.93;;;10.45;;
37609;SDS011;23457;51.966;8.230;2023-12-14T09:41:22;12.95;;;9.38;;
37609;SDS011;23457;51.966;8.230;2023-12-14T09:43:49;13.13;;;8.82;;
37609;SDS011;23457;51.966;8.230;2023-12-14T09:46:16;12.68;;;8.90;;
37609;SDS011;23457;51.966;8.230;2023-12-14T09:48:45;12.95;;;9.48;;
37609;SDS011;23457;51.966;8.230;2023-12-14T09:51:12;13.57;;;9.35;;
37609;SDS011;23457;51.966;8.230;2023-12-14T09:53:39;13.25;;;9.32;;
37609;SDS011;23457;51.966;8.230;2023-12-14T09:56:06;12.68;;;9.43;;
37609;SDS011;23457;51.966;8.230;2023-12-14T09:58:33;12.20;;;9.57;;
37609;SDS011;23457;51.966;8.230;2023-12-14T10:01:01;13.73;;;8.95;;
37609;SDS011;23457;51.966;8.230;2023-12-14T10:03:30;13.00;;;9.27;;
37609;SDS011;23457;51.966;8.230;2023-12-14T10:06:00;11.80;;;9.48;;
37609;SDS011;23457;51.966;8.230;2023-12-14T10:08:28;12.27;;;9.77;;
37609;SDS011;23457;51.966;8.230;2023-12-14T10:10:55;13.43;;;9.73;;
37609;SDS011;23457;51.966;8.230;2023-12-14T10:13:38;13.35;;;9.70;;
37609;SDS011;23457;51.966;8.230;2023-12-14T10:16:06;11.35;;;8.13;;
37609;SDS011;23457;51.966;8.230;2023-12-14T10:18:33;11.85;;;8.82;;
37609;SDS011;23457;51.966;8.230;2023-12-14T10:21:05;11.48;;;8.90;;
37609;SDS011;23457;51.966;8.230;2023-12-14T10:23:33;12.27;;;8.77;;
37609;SDS011;23457;51.966;8.230;2023-12-14T10:26:01;12.13;;;8.98;;
37609;SDS011;23457;51.966;8.230;2023-12-14T10:28:27;12.05;;;8.45;;
37609;SDS011;23457;51.966;8.230;2023-12-14T10:30:55;11.13;;;8.38;;
37609;SDS011;23457;51.966;8.230;2023-12-14T10:33:21;11.18;;;8.63;;
37609;SDS011;23457;51.966;8.230;2023-12-14T10:35:48;14.07;;;9.57;;
37609;SDS011;23457;51.966;8.230;2023-12-14T10:38:15;14.80;;;9.25;;
37609;SDS011;23457;51.966;8.230;2023-12-14T10:40:44;15.52;;;9.55;;
37609;SDS011;23457;51.966;8.230;2023-12-14T10:43:12;13.45;;;10.13;;
37609;SDS011;23457;51.966;8.230;2023-12-14T10:48:09;12.80;;;8.98;;
37609;SDS011;23457;51.966;8.230;2023-12-14T10:50:41;12.25;;;9.45;;
37609;SDS011;23457;51.966;8.230;2023-12-14T10:53:09;12.00;;;9.60;;
37609;SDS011;23457;51.966;8.230;2023-12-14T10:55:37;13.65;;;10.00;;
37609;SDS011;23457;51.966;8.230;2023-12-14T10:58:07;14.70;;;10.00;;
37609;SDS011;23457;51.966;8.230;2023-12-14T11:00:36;10.95;;;9.05;;
37609;SDS011;23457;51.966;8.230;2023-12-14T11:03:03;11.48;;;9.73;;
37609;SDS011;23457;51.966;8.230;2023-12-14T11:05:34;12.27;;;9.43;;
37609;SDS011;23457;51.966;8.230;2023-12-14T11:08:03;14.70;;;9.98;;
37609;SDS011;23457;51.966;8.230;2023-12-14T11:10:40;12.15;;;9.88;;
37609;SDS011;23457;51.966;8.230;2023-12-14T11:15:45;11.85;;;9.95;;
37609;SDS011;23457;51.966;8.230;2023-12-14T11:23:11;11.98;;;9.85;;
37609;SDS011;23457;51.966;8.230;2023-12-14T11:25:40;12.07;;;9.25;;
37609;SDS011;23457;51.966;8.230;2023-12-14T11:28:12;10.25;;;8.65;;
37609;SDS011;23457;51.966;8.230;2023-12-14T11:30:40;14.13;;;9.93;;
37609;SDS011;23457;51.966;8.230;2023-12-14T11:33:21;12.55;;;10.10;;
37609;SDS011;23457;51.966;8.230;2023-12-14T11:35:48;14.55;;;10.27;;
37609;SDS011;23457;51.966;8.230;2023-12-14T11:38:17;13.38;;;9.95;;
37609;SDS011;23457;51.966;8.230;2023-12-14T11:40:45;13.45;;;9.27;;
37609;SDS011;23457;51.966;8.230;2023-12-14T11:43:12;12.18;;;10.00;;
37609;SDS011;23457;51.966;8.230;2023-12-14T11:45:39;11.43;;;9.18;;
37609;SDS011;23457;51.966;8.230;2023-12-14T11:48:07;10.57;;;8.80;;
37609;SDS011;23457;51.966;8.230;2023-12-14T11:50:37;9.98;;;8.70;;
37609;SDS011;23457;51.966;8.230;2023-12-14T11:53:06;11.23;;;8.20;;
37609;SDS011;23457;51.966;8.230;2023-12-14T11:55:35;12.88;;;8.95;;
37609;SDS011;23457;51.966;8.230;2023-12-14T11:58:03;11.13;;;9.13;;
37609;SDS011;23457;51.966;8.230;2023-12-14T12:00:30;11.55;;;9.23;;
37609;SDS011;23457;51.966;8.230;2023-12-14T12:05:44;10.05;;;8.95;;
37609;SDS011;23457;51.966;8.230;2023-12-14T12:08:16;9.23;;;8.10;;
37609;SDS011;23457;51.966;8.230;2023-12-14T12:10:46;10.82;;;8.95;;
37609;SDS011;23457;51.966;8.230;2023-12-14T12:13:14;11.55;;;9.88;;
37609;SDS011;23457;51.966;8.230;2023-12-14T12:15:45;13.32;;;10.32;;
37609;SDS011;23457;51.966;8.230;2023-12-14T12:18:13;13.88;;;10.20;;
37609;SDS011;23457;51.966;8.230;2023-12-14T12:20:41;12.40;;;9.88;;
37609;SDS011;23457;51.966;8.230;2023-12-14T12:23:09;12.23;;;9.77;;
37609;SDS011;23457;51.966;8.230;2023-12-14T12:25:35;11.15;;;9.80;;
37609;SDS011;23457;51.966;8.230;2023-12-14T12:28:03;11.95;;;9.45;;
37609;SDS011;23457;51.966;8.230;2023-12-14T12:30:32;10.95;;;9.55;;
37609;SDS011;23457;51.966;8.230;2023-12-14T12:33:05;12.93;;;9.65;;
37609;SDS011;23457;51.966;8.230;2023-12-14T12:35:32;10.48;;;8.70;;
37609;SDS011;23457;51.966;8.230;2023-12-14T12:38:00;12.10;;;9.07;;
37609;SDS011;23457;51.966;8.230;2023-12-14T12:40:28;10.52;;;9.30;;
37609;SDS011;23457;51.966;8.230;2023-12-14T12:42:57;12.57;;;9.43;;
37609;SDS011;23457;51.966;8.230;2023-12-14T12:45:23;14.95;;;9.60;;
37609;SDS011;23457;51.966;8.230;2023-12-14T12:47:54;10.55;;;8.68;;
37609;SDS011;23457;51.966;8.230;2023-12-14T12:50:21;9.27;;;8.25;;
37609;SDS011;23457;51.966;8.230;2023-12-14T12:52:48;10.32;;;8.77;;
37609;SDS011;23457;51.966;8.230;2023-12-14T12:55:16;8.95;;;7.88;;
37609;SDS011;23457;51.966;8.230;2023-12-14T12:57:43;9.02;;;7.88;;
37609;SDS011;23457;51.966;8.230;2023-12-14T13:00:10;12.68;;;8.85;;
37609;SDS011;23457;51.966;8.230;2023-12-14T13:02:43;9.57;;;7.63;;
37609;SDS011;23457;51.966;8.230;2023-12-14T13:05:13;10.80;;;7.35;;
37609;SDS011;23457;51.966;8.230;2023-12-14T13:07:44;8.93;;;7.53;;
37609;SDS011;23457;51.966;8.230;2023-12-14T13:10:12;8.93;;;7.57;;
37609;SDS011;23457;51.966;8.230;2023-12-14T13:12:54;10.10;;;8.95;;
37609;SDS011;23457;51.966;8.230;2023-12-14T13:15:21;9.50;;;8.50;;
37609;SDS011;23457;51.966;8.230;2023-12-14T13:17:53;11.90;;;9.75;;
37609;SDS011;23457;51.966;8.230;2023-12-14T13:20:20;11.75;;;10.10;;
37609;SDS011;23457;51.966;8.230;2023-12-14T13:22:47;13.57;;;10.55;;
37609;SDS011;23457;51.966;8.230;2023-12-14T13:25:14;11.57;;;10.00;;
37609;SDS011;23457;51.966;8.230;2023-12-14T13:27:41;13.75;;;10.93;;
37609;SDS011;23457;51.966;8.230;2023-12-14T13:30:10;14.65;;;10.70;;
37609;SDS011;23457;51.966;8.230;2023-12-14T13:32:41;16.42;;;11.23;;
37609;SDS011;23457;51.966;8.230;2023-12-14T13:35:09;13.38;;;10.63;;
37609;SDS011;23457;51.966;8.230;2023-12-14T13:37:37;11.90;;;10.02;;
37609;SDS011;23457;51.966;8.230;2023-12-14T13:40:04;13.65;;;11.07;;
37609;SDS011;23457;51.966;8.230;2023-12-14T13:42:32;13.18;;;11.32;;
37609;SDS011;23457;51.966;8.230;2023-12-14T13:44:58;14.93;;;11.35;;
37609;SDS011;23457;51.966;8.230;2023-12-14T13:47:25;15.27;;;11.77;;
37609;SDS011;23457;51.966;8.230;2023-12-14T13:49:52;15.75;;;13.18;;
37609;SDS011;23457;51.966;8.230;2023-12-14T13:52:19;18.95;;;13.30;;
37609;SDS011;23457;51.966;8.230;2023-12-14T13:54:46;18.17;;;13.98;;
37609;SDS011;23457;51.966;8.230;2023-12-14T13:57:13;18.98;;;14.10;;
37609;SDS011;23457;51.966;8.230;2023-12-14T13:59:39;17.30;;;13.18;;
37609;SDS011;23457;51.966;8.230;2023-12-14T14:02:06;17.27;;;14.20;;
37609;SDS011;23457;51.966;8.230;2023-12-14T14:04:33;21.05;;;14.85;;
37609;SDS011;23457;51.966;8.230;2023-12-14T14:07:00;18.63;;;14.13;;
37609;SDS011;23457;51.966;8.230;2023-12-14T14:09:26;19.42;;;14.32;;
37609;SDS011;23457;51.966;8.230;2023-12-14T14:11:53;18.30;;;14.13;;
37609;SDS011;23457;51.966;8.230;2023-12-14T14:14:23;18.83;;;14.45;;
37609;SDS011;23457;51.966;8.230;2023-12-14T14:16:51;18.55;;;14.23;;
37609;SDS011;23457;51.966;8.230;2023-12-14T14:19:18;20.52;;;15.27;;
37609;SDS011;23457;51.966;8.230;2023-12-14T14:21:45;20.85;;;14.68;;
37609;SDS011;23457;51.966;8.230;2023-12-14T14:24:12;18.30;;;14.68;;
37609;SDS011;23457;51.966;8.230;2023-12-14T14:26:39;20.70;;;15.02;;
37609;SDS011;23457;51.966;8.230;2023-12-14T14:29:05;21.27;;;14.95;;
37609;SDS011;23457;51.966;8.230;2023-12-14T14:31:32;19.55;;;14.52;;
37609;SDS011;23457;51.966;8.230;2023-12-14T14:33:59;20.15;;;14.93;;
37609;SDS011;23457;51.966;8.230;2023-12-14T14:36:27;18.48;;;14.52;;
37609;SDS011;23457;51.966;8.230;2023-12-14T14:38:54;22.48;;;15.13;;
37609;SDS011;23457;51.966;8.230;2023-12-14T14:41:23;17.35;;;13.40;;
37609;SDS011;23457;51.966;8.230;2023-12-14T14:43:50;18.90;;;13.77;;